West Clarksfield, Ohio
Current Conditions -  °F | °C
As of 4:53 AM on Friday 28 Nov 2014 (Local Time) from KLPR Reporting Station
Overcast Overcast  
Wind Chill: 10°   Ceiling: 3700
Heat Index: 22°   Visibility: 10mi
Dew Point: 12°   Wind: 13mph
Humidity: 66%   Direction: 290°WNW
Pressure: 30.34"   Gusts: NA
Location:  41.2376°N, 82.3866°W
Report Text: KLPR 280953Z AUTO 29011KT 10SM BKN037 OVC046 M06/M11 A3034 RMK AO2 SLP283 T10561111 TSNO
Loading
Personal Weather Stations






























Interactive Weather Map New forecast layout! Learn more

10-Day Weather Forecast

Advertisements
Track Severe Weather on mobile